createdAt,value
2018-07-12T00:01:48.523Z,18.53
2018-07-12T00:06:50.826Z,17.47
2018-07-12T00:11:54.998Z,16.80
2018-07-12T00:16:57.505Z,16.10
2018-07-12T00:22:00.017Z,20.60
2018-07-12T00:27:02.342Z,19.97
2018-07-12T00:32:04.671Z,21.33
2018-07-12T00:37:07.045Z,20.53
2018-07-12T00:42:09.351Z,24.23
2018-07-12T00:47:11.877Z,22.27
2018-07-12T00:52:14.180Z,20.67
2018-07-12T00:57:17.338Z,21.13
2018-07-12T01:02:19.672Z,24.03
2018-07-12T01:07:22.001Z,24.67
2018-07-12T01:12:24.327Z,28.97
2018-07-12T01:17:26.666Z,31.53
2018-07-12T01:22:29.153Z,30.37
2018-07-12T01:27:31.565Z,34.87
2018-07-12T01:32:33.857Z,32.43
2018-07-12T01:37:36.205Z,35.77
2018-07-12T01:42:38.525Z,34.60
2018-07-12T01:47:40.855Z,32.50
2018-07-12T01:52:43.176Z,37.57
2018-07-12T01:57:45.525Z,33.97
2018-07-12T02:02:47.913Z,40.73
2018-07-12T02:07:50.423Z,37.53
2018-07-12T02:12:52.792Z,35.70
2018-07-12T02:17:56.569Z,35.27
2018-07-12T02:22:58.871Z,32.83
2018-07-12T02:28:01.217Z,41.70
2018-07-12T02:33:03.677Z,32.57
2018-07-12T02:38:05.978Z,35.63
2018-07-12T02:43:09.026Z,34.37
2018-07-12T02:48:11.400Z,37.10
2018-07-12T02:53:13.996Z,44.17
2018-07-12T02:58:16.319Z,37.93
2018-07-12T03:03:18.669Z,50.00
2018-07-12T03:08:21.053Z,51.23
2018-07-12T03:13:23.395Z,52.67
2018-07-12T03:18:25.727Z,60.67
2018-07-12T03:23:28.286Z,46.83
2018-07-12T03:28:30.591Z,48.23
2018-07-12T03:33:32.929Z,39.10
2018-07-12T03:38:35.237Z,44.63
2018-07-12T03:43:38.494Z,43.77
2018-07-12T03:48:40.799Z,47.37
2018-07-12T03:53:43.128Z,45.20
2018-07-12T03:58:45.421Z,51.03
2018-07-12T04:03:47.850Z,49.90
2018-07-12T04:08:50.168Z,41.33
2018-07-12T04:13:52.516Z,52.63
2018-07-12T04:18:54.818Z,60.27
2018-07-12T04:23:57.177Z,58.70
2018-07-12T04:28:59.502Z,58.00
2018-07-12T04:34:02.025Z,61.07
2018-07-12T04:39:04.759Z,56.50
2018-07-12T04:44:07.282Z,70.53
2018-07-12T04:49:09.581Z,46.47
2018-07-12T04:54:12.487Z,62.00
2018-07-12T04:59:15.095Z,44.70
2018-07-12T05:04:17.595Z,40.75
2018-07-12T05:09:19.955Z,41.00
2018-07-12T05:14:22.332Z,44.10
2018-07-12T05:19:24.664Z,47.33
2018-07-12T05:24:27.190Z,45.53
2018-07-12T05:29:29.509Z,51.67
2018-07-12T05:34:31.874Z,44.87
2018-07-12T05:39:35.513Z,53.07
2018-07-12T05:44:39.057Z,51.40
2018-07-12T05:49:42.595Z,45.00
2018-07-12T05:54:46.257Z,47.07
2018-07-12T05:59:49.803Z,49.30
2018-07-12T06:04:53.509Z,47.47
2018-07-12T06:09:57.847Z,51.53
2018-07-12T06:15:01.414Z,51.10
2018-07-12T06:20:08.036Z,52.90
2018-07-12T06:25:11.818Z,54.97
2018-07-12T06:30:18.334Z,54.77
2018-07-12T06:35:21.965Z,43.37
2018-07-12T06:40:25.745Z,49.00
2018-07-12T06:45:29.417Z,47.00
2018-07-12T06:50:33.119Z,41.27
2018-07-12T06:55:37.684Z,41.03
2018-07-12T07:00:41.222Z,40.30
2018-07-12T07:05:44.877Z,34.33
2018-07-12T07:10:48.389Z,35.87
2018-07-12T07:15:52.874Z,32.07
2018-07-12T07:20:56.409Z,31.03
2018-07-12T07:26:00.561Z,34.17
2018-07-12T07:31:04.586Z,28.83
2018-07-12T07:36:09.184Z,28.90
2018-07-12T07:41:12.751Z,27.37
2018-07-12T07:46:17.273Z,26.60
2018-07-12T07:51:20.776Z,25.17
2018-07-12T07:56:24.347Z,23.43
2018-07-12T08:01:27.866Z,25.03
2018-07-12T08:06:32.302Z,29.57
2018-07-12T08:11:35.810Z,29.90
2018-07-12T08:16:39.344Z,31.70
2018-07-12T08:21:42.877Z,30.23
2018-07-12T08:26:46.485Z,38.47
2018-07-12T08:31:50.265Z,36.13
2018-07-12T08:36:54.031Z,37.17
2018-07-12T08:41:57.599Z,37.63
2018-07-12T08:47:01.244Z,33.67
2018-07-12T08:52:05.661Z,29.43
2018-07-12T08:57:18.479Z,21.00
2018-07-12T09:02:22.761Z,24.57
2018-07-12T09:07:26.354Z,23.67
2018-07-12T09:12:30.213Z,16.33
2018-07-12T09:17:33.759Z,17.33
2018-07-12T09:22:37.268Z,11.17
2018-07-12T09:27:41.051Z,11.37
2018-07-12T09:32:44.628Z,11.83
2018-07-12T09:37:48.306Z,9.83
2018-07-12T09:42:53.172Z,7.87
2018-07-12T09:47:57.157Z,11.67
2018-07-12T09:53:00.719Z,13.00
2018-07-12T09:58:15.650Z,11.90
2018-07-12T10:03:21.562Z,11.50
2018-07-12T10:08:30.430Z,10.83
2018-07-12T10:13:39.256Z,10.20
2018-07-12T10:18:43.181Z,8.90
2018-07-12T10:23:46.796Z,12.63
2018-07-12T10:28:51.954Z,8.30
2018-07-12T10:33:56.896Z,9.80
2018-07-12T10:39:00.992Z,7.93
2018-07-12T10:44:04.710Z,8.20
2018-07-12T10:49:08.405Z,10.53
2018-07-12T10:54:12.057Z,9.67
2018-07-12T10:59:15.549Z,9.47
2018-07-12T11:04:19.307Z,6.27
2018-07-12T11:09:22.917Z,4.93
2018-07-12T11:14:26.481Z,6.03
2018-07-12T11:19:30.154Z,6.37
2018-07-12T11:24:34.276Z,5.20
2018-07-12T11:29:51.369Z,9.90
2018-07-12T11:34:55.012Z,7.23
2018-07-12T11:39:58.748Z,7.73
2018-07-12T11:45:02.418Z,5.20
2018-07-12T11:50:06.290Z,7.73
2018-07-12T11:55:09.892Z,6.43
2018-07-12T12:00:16.280Z,6.77
2018-07-12T12:05:21.055Z,7.83
2018-07-12T12:10:25.072Z,6.00
2018-07-12T12:15:28.721Z,5.47
2018-07-12T12:20:32.466Z,6.27
2018-07-12T12:25:36.269Z,6.90
2018-07-12T12:30:39.956Z,8.33
2018-07-12T12:35:43.637Z,9.73
2018-07-12T12:40:47.219Z,8.40
2018-07-12T12:45:51.748Z,5.90
2018-07-12T12:50:55.331Z,7.07
2018-07-12T12:55:58.917Z,5.67
2018-07-12T13:01:02.918Z,6.53
2018-07-12T13:06:13.366Z,6.63
2018-07-12T13:11:17.810Z,8.97
2018-07-12T13:16:21.369Z,10.47
2018-07-12T13:21:24.937Z,9.13
2018-07-12T13:26:28.670Z,8.83
2018-07-12T13:31:32.515Z,6.93
2018-07-12T13:36:36.045Z,6.17
2018-07-12T13:41:39.634Z,6.97
2018-07-12T13:46:43.519Z,6.10
2018-07-12T13:51:48.381Z,13.03
2018-07-12T13:56:52.448Z,12.47
2018-07-12T14:01:56.007Z,7.43
2018-07-12T14:06:59.708Z,10.60
2018-07-12T14:12:03.521Z,6.90
2018-07-12T14:17:07.038Z,6.07
2018-07-12T14:22:10.659Z,4.60
2018-07-12T14:27:14.428Z,4.40
2018-07-12T14:32:18.274Z,4.90
2018-07-12T14:37:21.940Z,5.00
2018-07-12T14:42:25.509Z,6.90
2018-07-12T14:47:29.062Z,5.83
2018-07-12T14:52:32.727Z,4.87
2018-07-12T14:57:36.642Z,5.40
2018-07-12T15:02:40.161Z,7.03
2018-07-12T15:07:44.009Z,9.73
2018-07-12T15:12:47.523Z,7.77
2018-07-12T15:17:51.288Z,9.83
2018-07-12T15:22:54.807Z,7.63
2018-07-12T15:27:59.062Z,8.20
2018-07-12T15:33:02.715Z,7.30
2018-07-12T15:38:06.529Z,6.63
2018-07-12T15:43:10.039Z,6.27
2018-07-12T15:48:13.621Z,7.50
2018-07-12T15:53:17.186Z,6.53
2018-07-12T15:58:21.589Z,7.77
2018-07-12T16:03:25.095Z,5.20
2018-07-12T16:08:30.457Z,7.10
2018-07-12T16:13:35.103Z,9.80
2018-07-12T16:18:38.629Z,7.97
2018-07-12T16:23:42.199Z,6.63
2018-07-12T16:28:45.767Z,8.17
2018-07-12T16:33:49.541Z,10.90
2018-07-12T16:38:53.282Z,6.73
2018-07-12T16:43:57.821Z,7.13
2018-07-12T16:49:01.438Z,6.73
2018-07-12T16:54:05.173Z,6.53
2018-07-12T16:59:08.930Z,18.57
2018-07-12T17:04:16.211Z,11.67
2018-07-12T17:09:20.218Z,7.10
2018-07-12T17:14:24.514Z,10.93
2018-07-12T17:19:28.998Z,14.30
2018-07-12T17:24:32.661Z,6.33
2018-07-12T17:29:36.578Z,6.43
2018-07-12T17:34:40.405Z,7.13
2018-07-12T17:39:44.343Z,7.00
2018-07-12T17:44:48.608Z,8.47
2018-07-12T17:49:52.636Z,6.33
2018-07-12T17:54:56.194Z,7.43
2018-07-12T18:00:00.600Z,8.80
2018-07-12T18:05:04.358Z,7.07
2018-07-12T18:10:07.904Z,6.53
2018-07-12T18:15:11.498Z,8.27
2018-07-12T18:20:15.684Z,8.67
2018-07-12T18:25:19.317Z,6.37
2018-07-12T18:30:27.854Z,7.57
2018-07-12T18:35:31.416Z,7.77
2018-07-12T18:40:37.050Z,11.87
2018-07-12T18:45:40.662Z,10.43
2018-07-12T18:50:44.329Z,7.13
2018-07-12T18:55:47.898Z,8.03
2018-07-12T19:00:51.473Z,7.80
2018-07-12T19:05:55.099Z,7.47
2018-07-12T19:10:58.875Z,7.23
2018-07-12T19:16:02.660Z,7.63
2018-07-12T19:21:07.763Z,7.73
2018-07-12T19:26:12.157Z,8.70
2018-07-12T19:31:16.206Z,7.60
2018-07-12T19:36:19.753Z,9.07
2018-07-12T19:41:23.390Z,9.53
2018-07-12T19:46:26.911Z,10.23
2018-07-12T19:51:30.995Z,9.60
2018-07-12T19:56:34.734Z,9.97
2018-07-12T20:01:39.597Z,12.53
2018-07-12T20:06:43.820Z,12.73
2018-07-12T20:11:47.363Z,14.07
2018-07-12T20:16:52.501Z,11.73
2018-07-12T20:22:00.078Z,11.53
2018-07-12T20:27:03.719Z,14.40
2018-07-12T20:32:07.476Z,11.57
2018-07-12T20:37:11.061Z,11.53
2018-07-12T20:42:14.626Z,12.50
2018-07-12T20:47:18.064Z,15.33
2018-07-12T20:52:22.469Z,14.43
2018-07-12T20:57:27.320Z,14.70
2018-07-12T21:02:31.641Z,15.33
2018-07-12T21:07:36.066Z,15.73
2018-07-12T21:12:39.612Z,16.70
2018-07-12T21:17:43.709Z,17.93
2018-07-12T21:22:47.375Z,16.10
2018-07-12T21:27:50.868Z,14.63
2018-07-12T21:32:54.518Z,15.97
2018-07-12T21:37:58.090Z,19.67
2018-07-12T21:43:02.017Z,20.77
2018-07-12T21:48:05.594Z,17.53
2018-07-12T21:53:09.717Z,14.67
2018-07-12T21:58:13.354Z,19.47
2018-07-12T22:03:17.092Z,19.33
2018-07-12T22:08:24.778Z,15.70
2018-07-12T22:13:29.214Z,17.20
2018-07-12T22:18:32.736Z,20.53
2018-07-12T22:23:36.592Z,19.03
2018-07-12T22:28:40.177Z,19.20
2018-07-12T22:33:43.711Z,18.53
2018-07-12T22:38:47.331Z,18.77
2018-07-12T22:43:50.917Z,20.23
2018-07-12T22:48:54.554Z,17.93
2018-07-12T22:53:58.226Z,20.70
2018-07-12T22:59:02.077Z,19.37
2018-07-12T23:04:06.724Z,18.53
2018-07-12T23:09:10.320Z,15.70
2018-07-12T23:14:13.866Z,19.33
2018-07-12T23:19:17.318Z,19.07
2018-07-12T23:24:21.405Z,16.13
2018-07-12T23:29:24.906Z,16.73
2018-07-12T23:34:28.411Z,19.03
2018-07-12T23:39:31.911Z,18.00
2018-07-12T23:44:35.642Z,16.87
2018-07-12T23:49:39.185Z,17.90
2018-07-12T23:54:43.212Z,17.60
2018-07-12T23:59:47.214Z,19.53
